createdAt,value
2022-11-10T00:00:18.863Z,98413.38
2022-11-10T00:02:45.554Z,98419.50
2022-11-10T00:05:12.314Z,98421.59
2022-11-10T00:07:38.900Z,98416.81
2022-11-10T00:10:06.041Z,98430.66
2022-11-10T00:12:32.869Z,98426.66
2022-11-10T00:15:18.097Z,98429.56
2022-11-10T00:17:44.707Z,98436.53
2022-11-10T00:20:11.378Z,98435.16
2022-11-10T00:22:38.536Z,98441.28
2022-11-10T00:25:05.316Z,98444.22
2022-11-10T00:27:32.704Z,98454.88
2022-11-10T00:29:59.416Z,98450.03
2022-11-10T00:32:25.900Z,98451.66
2022-11-10T00:34:52.382Z,98460.69
2022-11-10T00:37:18.853Z,98459.09
2022-11-10T00:39:45.320Z,98468.41
2022-11-10T00:42:11.893Z,98464.41
2022-11-10T00:44:38.370Z,98460.13
2022-11-10T00:47:04.894Z,98468.13
2022-11-10T00:49:31.386Z,98469.16
2022-11-10T00:51:58.192Z,98484.09
2022-11-10T00:54:24.680Z,98480.09
2022-11-10T00:56:51.458Z,98473.97
2022-11-10T00:59:17.940Z,98483.81
2022-11-10T01:01:44.389Z,98479.78
2022-11-10T01:04:10.885Z,98487.78
2022-11-10T01:06:37.396Z,98482.72
2022-11-10T01:09:04.066Z,98488.31
2022-11-10T01:11:30.584Z,98493.06
2022-11-10T01:13:57.150Z,98493.88
2022-11-10T01:16:28.739Z,98499.19
2022-11-10T01:18:57.807Z,98504.50
2022-11-10T01:21:24.624Z,98502.38
2022-11-10T01:23:51.248Z,98511.97
2022-11-10T01:26:17.820Z,98513.56
2022-11-10T01:28:44.395Z,98506.91
2022-11-10T01:31:12.746Z,98511.41
2022-11-10T01:33:39.247Z,98508.22
2022-11-10T01:36:06.144Z,98515.13
2022-11-10T01:38:34.461Z,98509.28
2022-11-10T01:41:01.310Z,98505.00
2022-11-10T01:43:27.958Z,98509.53
2022-11-10T01:46:01.733Z,98511.63
2022-11-10T01:48:45.923Z,98507.09
2022-11-10T01:51:30.111Z,98512.69
2022-11-10T01:54:07.942Z,98517.22
2022-11-10T01:56:36.760Z,98519.09
2022-11-10T01:59:09.437Z,98520.94
2022-11-10T02:01:35.897Z,98533.69
2022-11-10T02:04:04.114Z,98533.69
2022-11-10T02:06:33.148Z,98533.16
2022-11-10T02:09:00.010Z,98535.81
2022-11-10T02:11:27.403Z,98539.50
2022-11-10T02:13:53.911Z,98549.34
2022-11-10T02:16:20.429Z,98548.56
2022-11-10T02:18:47.414Z,98551.47
2022-11-10T02:21:16.478Z,98548.00
2022-11-10T02:23:44.778Z,98559.19
2022-11-10T02:26:11.231Z,98556.00
2022-11-10T02:28:38.062Z,98563.19
2022-11-10T02:31:04.894Z,98557.06
2022-11-10T02:33:31.427Z,98569.81
2022-11-10T02:35:57.943Z,98562.63
2022-11-10T02:38:24.416Z,98565.84
2022-11-10T02:40:50.880Z,98565.53
2022-11-10T02:43:17.615Z,98568.22
2022-11-10T02:45:44.095Z,98565.00
2022-11-10T02:48:11.049Z,98565.00
2022-11-10T02:50:37.676Z,98566.84
2022-11-10T02:53:04.320Z,98576.69
2022-11-10T02:55:30.859Z,98575.88
2022-11-10T02:57:57.329Z,98579.59
2022-11-10T03:00:23.862Z,98582.53
2022-11-10T03:02:58.797Z,98584.66
2022-11-10T03:05:25.277Z,98587.22
2022-11-10T03:07:58.087Z,98583.38
2022-11-10T03:10:25.360Z,98587.97
2022-11-10T03:12:55.696Z,98592.59
2022-11-10T03:15:22.178Z,98590.44
2022-11-10T03:17:50.701Z,98601.16
2022-11-10T03:20:17.271Z,98618.56
2022-11-10T03:22:43.801Z,98613.53
2022-11-10T03:25:10.547Z,98602.88
2022-11-10T03:27:37.010Z,98615.16
2022-11-10T03:30:04.679Z,98616.78
2022-11-10T03:32:31.159Z,98620.25
2022-11-10T03:34:57.625Z,98612.25
2022-11-10T03:37:24.077Z,98613.31
2022-11-10T03:39:50.866Z,98613.59
2022-11-10T03:42:17.332Z,98615.44
2022-11-10T03:44:44.215Z,98617.59
2022-11-10T03:47:10.690Z,98612.59
2022-11-10T03:49:37.674Z,98620.94
2022-11-10T03:52:04.292Z,98619.91
2022-11-10T03:54:31.077Z,98627.66
2022-11-10T03:56:57.621Z,98634.31
2022-11-10T03:59:24.154Z,98641.53
2022-11-10T04:01:50.704Z,98634.31
2022-11-10T04:04:35.887Z,98637.25
2022-11-10T04:07:20.643Z,98635.94
2022-11-10T04:09:47.115Z,98644.50
2022-11-10T04:12:31.948Z,98643.16
2022-11-10T04:15:16.793Z,98655.44
2022-11-10T04:17:49.156Z,98653.03
2022-11-10T04:20:15.623Z,98659.13
2022-11-10T04:23:00.789Z,98667.34
2022-11-10T04:25:27.246Z,98676.91
2022-11-10T04:27:53.714Z,98680.88
2022-11-10T04:30:20.170Z,98680.34
2022-11-10T04:32:46.680Z,98679.81
2022-11-10T04:35:13.130Z,98697.91
2022-11-10T04:37:39.621Z,98695.75
2022-11-10T04:40:06.703Z,98687.78
2022-11-10T04:42:33.148Z,98684.81
2022-11-10T04:44:59.608Z,98685.56
2022-11-10T04:47:26.086Z,98693.28
2022-11-10T04:49:52.545Z,98696.75
2022-11-10T04:52:19.000Z,98698.09
2022-11-10T04:54:45.468Z,98707.13
2022-11-10T04:57:12.209Z,98710.03
2022-11-10T04:59:38.670Z,98714.56
2022-11-10T05:02:05.132Z,98725.78
2022-11-10T05:04:31.700Z,98722.91
2022-11-10T05:06:58.220Z,98721.84
2022-11-10T05:09:24.707Z,98733.06
2022-11-10T05:11:51.207Z,98738.41
2022-11-10T05:14:17.719Z,98735.97
2022-11-10T05:16:44.176Z,98753.03
2022-11-10T05:19:11.051Z,98754.91
2022-11-10T05:21:37.512Z,98754.31
2022-11-10T05:24:04.113Z,98759.91
2022-11-10T05:26:30.600Z,98760.72
2022-11-10T05:28:57.098Z,98776.72
2022-11-10T05:31:23.569Z,98769.25
2022-11-10T05:33:51.045Z,98758.00
2022-11-10T05:36:17.512Z,98764.13
2022-11-10T05:38:44.096Z,98763.34
2022-11-10T05:41:10.991Z,98776.13
2022-11-10T05:43:37.500Z,98773.63
2022-11-10T05:46:03.961Z,98787.28
2022-11-10T05:48:30.519Z,98791.78
2022-11-10T05:50:56.978Z,98790.19
2022-11-10T05:53:23.969Z,98779.75
2022-11-10T05:55:50.672Z,98784.47
2022-11-10T05:58:17.182Z,98798.94
2022-11-10T06:00:43.656Z,98799.47
2022-11-10T06:03:14.577Z,98798.56
2022-11-10T06:05:41.252Z,98792.47
2022-11-10T06:08:07.821Z,98811.41
2022-11-10T06:10:34.502Z,98814.88
2022-11-10T06:13:01.036Z,98818.09
2022-11-10T06:15:27.509Z,98821.56
2022-11-10T06:17:54.286Z,98825.84
2022-11-10T06:20:21.074Z,98826.66
2022-11-10T06:23:10.140Z,98830.91
2022-11-10T06:25:37.284Z,98840.78
2022-11-10T06:28:04.045Z,98847.16
2022-11-10T06:30:31.279Z,98861.06
2022-11-10T06:32:57.832Z,98858.13
2022-11-10T06:35:24.425Z,98863.47
2022-11-10T06:38:07.154Z,98870.41
2022-11-10T06:40:33.646Z,98856.28
2022-11-10T06:43:00.217Z,98871.47
2022-11-10T06:45:28.388Z,98874.13
2022-11-10T06:48:06.015Z,98877.28
2022-11-10T06:50:32.544Z,98878.09
2022-11-10T06:52:59.523Z,98876.50
2022-11-10T06:55:26.089Z,98882.88
2022-11-10T06:57:52.684Z,98887.41
2022-11-10T07:00:19.366Z,98885.00
2022-11-10T07:02:45.866Z,98887.91
2022-11-10T07:05:12.347Z,98897.22
2022-11-10T07:07:38.835Z,98892.91
2022-11-10T07:10:07.152Z,98898.25
2022-11-10T07:12:34.100Z,98899.31
2022-11-10T07:15:00.568Z,98902.34
2022-11-10T07:17:27.174Z,98910.22
2022-11-10T07:19:53.688Z,98917.75
2022-11-10T07:22:20.143Z,98922.22
2022-11-10T07:24:46.611Z,98932.41
2022-11-10T07:27:13.064Z,98931.59
2022-11-10T07:29:39.851Z,98931.88
2022-11-10T07:32:06.324Z,98945.19
2022-11-10T07:34:32.795Z,98947.88
2022-11-10T07:36:59.323Z,98954.00
2022-11-10T07:39:25.790Z,98947.06
2022-11-10T07:41:53.001Z,98955.88
2022-11-10T07:44:19.601Z,98962.22
2022-11-10T07:46:46.071Z,98962.59
2022-11-10T07:49:12.635Z,98959.63
2022-11-10T07:51:39.247Z,98966.25
2022-11-10T07:54:05.707Z,98982.25
2022-11-10T07:56:32.218Z,98976.34
2022-11-10T07:58:58.694Z,98982.19
2022-11-10T08:01:25.181Z,98995.34
2022-11-10T08:03:51.689Z,98981.75
2022-11-10T08:06:18.521Z,98980.13
2022-11-10T08:08:47.770Z,98989.03
2022-11-10T08:11:15.670Z,98991.91
2022-11-10T08:13:42.213Z,98985.47
2022-11-10T08:16:08.705Z,98992.09
2022-11-10T08:18:35.888Z,98987.84
2022-11-10T08:21:03.054Z,98998.50
2022-11-10T08:23:29.608Z,99001.97
2022-11-10T08:25:59.884Z,99019.00
2022-11-10T08:28:26.406Z,99017.56
2022-11-10T08:30:52.876Z,99021.75
2022-11-10T08:33:20.294Z,99032.97
2022-11-10T08:35:48.235Z,99028.22
2022-11-10T08:38:16.619Z,99051.34
2022-11-10T08:40:43.374Z,99055.28
2022-11-10T08:43:09.927Z,99052.94
2022-11-10T08:45:37.734Z,99054.81
2022-11-10T08:48:06.328Z,99057.69
2022-11-10T08:50:32.801Z,99043.56
2022-11-10T08:53:06.414Z,99054.63
2022-11-10T08:55:32.928Z,99055.66
2022-11-10T08:58:00.769Z,99055.97
2022-11-10T09:00:28.590Z,99070.59
2022-11-10T09:02:56.188Z,99082.06
2022-11-10T09:05:23.211Z,99086.34
2022-11-10T09:07:49.818Z,99091.13
2022-11-10T09:10:16.373Z,99096.66
2022-11-10T09:12:42.907Z,99100.38
2022-11-10T09:15:09.888Z,99108.13
2022-11-10T09:17:37.199Z,99105.72
2022-11-10T09:20:04.835Z,99120.66
2022-11-10T09:22:31.377Z,99122.25
2022-11-10T09:24:57.901Z,99119.84
2022-11-10T09:27:24.370Z,99104.13
2022-11-10T09:29:50.867Z,99115.31
2022-11-10T09:32:17.330Z,99111.59
2022-11-10T09:34:46.609Z,99130.03
2022-11-10T09:37:15.369Z,99107.66
2022-11-10T09:39:41.879Z,99121.53
2022-11-10T09:42:22.581Z,99121.91
2022-11-10T09:44:55.255Z,99134.75
2022-11-10T09:47:56.199Z,99131.81
2022-11-10T09:50:24.770Z,99130.56
2022-11-10T09:52:51.286Z,99122.84
2022-11-10T09:55:36.488Z,99132.72
2022-11-10T09:58:03.339Z,99134.81
2022-11-10T10:00:30.148Z,99142.00
2022-11-10T10:02:59.630Z,99137.50
2022-11-10T10:05:34.965Z,99139.34
2022-11-10T10:08:04.757Z,99139.56
2022-11-10T10:10:49.535Z,99137.75
2022-11-10T10:13:55.832Z,99131.81
2022-11-10T10:16:30.389Z,99143.88
2022-11-10T10:19:08.433Z,99138.78
2022-11-10T10:21:45.375Z,99137.50
2022-11-10T10:24:19.801Z,99148.69
2022-11-10T10:26:52.807Z,99148.69
2022-11-10T10:29:46.364Z,99141.22
2022-11-10T10:32:13.580Z,99148.63
2022-11-10T10:34:40.092Z,99153.94
2022-11-10T10:37:22.590Z,99159.28
2022-11-10T10:39:50.385Z,99159.38
2022-11-10T10:42:32.174Z,99156.78
2022-11-10T10:45:21.711Z,99160.34
2022-11-10T10:47:53.144Z,99156.13
2022-11-10T10:50:23.149Z,99161.97
2022-11-10T10:53:12.556Z,99161.72
2022-11-10T10:55:39.066Z,99157.84
2022-11-10T10:58:23.055Z,99157.75
2022-11-10T11:01:29.413Z,99148.06
2022-11-10T11:03:55.915Z,99148.59
2022-11-10T11:06:25.459Z,99153.38
2022-11-10T11:09:02.083Z,99145.38
2022-11-10T11:11:31.326Z,99148.66
2022-11-10T11:14:22.930Z,99152.47
2022-11-10T11:17:12.206Z,99160.78
2022-11-10T11:19:38.967Z,99162.66
2022-11-10T11:22:23.658Z,99168.53
2022-11-10T11:25:27.700Z,99156.84
2022-11-10T11:28:18.381Z,99161.59
2022-11-10T11:31:09.760Z,99165.59
2022-11-10T11:33:38.770Z,99166.13
2022-11-10T11:36:05.326Z,99167.75
2022-11-10T11:38:52.740Z,99180.84
2022-11-10T11:41:30.963Z,99173.41
2022-11-10T11:44:16.418Z,99173.16
2022-11-10T11:46:49.274Z,99172.03
2022-11-10T11:49:34.879Z,99178.25
2022-11-10T11:52:28.832Z,99170.81
2022-11-10T11:55:15.033Z,99182.13
2022-11-10T11:58:17.055Z,99190.13
2022-11-10T12:01:00.537Z,99183.47
2022-11-10T12:03:36.253Z,99191.88
2022-11-10T12:06:09.107Z,99192.31
2022-11-10T12:08:38.224Z,99201.84
2022-11-10T12:11:04.642Z,99219.00
2022-11-10T12:13:41.521Z,99213.72
2022-11-10T12:16:22.570Z,99214.13
2022-11-10T12:19:26.777Z,99213.00
2022-11-10T12:21:57.799Z,99222.94
2022-11-10T12:24:42.390Z,99227.38
2022-11-10T12:27:13.891Z,99228.09
2022-11-10T12:29:50.923Z,99228.44
2022-11-10T12:32:20.752Z,99238.47
2022-11-10T12:34:49.758Z,99230.38
2022-11-10T12:37:23.458Z,99217.53
2022-11-10T12:40:23.199Z,99218.91
2022-11-10T12:42:55.924Z,99223.56
2022-11-10T12:45:36.776Z,99222.84
2022-11-10T12:48:04.068Z,99228.03
2022-11-10T12:50:33.457Z,99221.88
2022-11-10T12:53:03.358Z,99232.25
2022-11-10T12:55:47.427Z,99234.56
2022-11-10T12:58:14.280Z,99228.56
2022-11-10T13:00:44.342Z,99218.63
2022-11-10T13:03:31.821Z,99223.16
2022-11-10T13:06:02.794Z,99238.13
2022-11-10T13:08:50.562Z,99231.38
2022-11-10T13:11:16.919Z,99235.31
2022-11-10T13:13:59.234Z,99249.00
2022-11-10T13:16:41.328Z,99245.78
2022-11-10T13:19:11.708Z,99255.28
2022-11-10T13:21:53.366Z,99256.88
2022-11-10T13:24:26.835Z,99259.81
2022-11-10T13:27:10.391Z,99259.44
2022-11-10T13:29:43.027Z,99265.72
2022-11-10T13:32:15.485Z,99264.81
2022-11-10T13:34:42.785Z,99271.25
2022-11-10T13:37:33.352Z,99267.53
2022-11-10T13:40:18.403Z,99258.44
2022-11-10T13:42:47.274Z,99265.47
2022-11-10T13:45:34.285Z,99269.91
2022-11-10T13:48:12.878Z,99273.06
2022-11-10T13:51:08.784Z,99285.31
2022-11-10T13:53:57.048Z,99282.50
2022-11-10T13:57:02.306Z,99285.78
2022-11-10T13:59:32.909Z,99279.78
2022-11-10T14:02:33.725Z,99281.94
2022-11-10T14:05:00.839Z,99294.66
2022-11-10T14:07:33.726Z,99287.28
2022-11-10T14:10:03.679Z,99298.41
2022-11-10T14:12:37.112Z,99295.59
2022-11-10T14:15:07.063Z,99304.16
2022-11-10T14:17:42.835Z,99293.16
2022-11-10T14:20:27.141Z,99309.03
2022-11-10T14:22:53.644Z,99304.25
2022-11-10T14:25:25.755Z,99309.84
2022-11-10T14:27:56.824Z,99303.22
2022-11-10T14:30:25.293Z,99299.50
2022-11-10T14:33:06.259Z,99303.81
2022-11-10T14:35:34.926Z,99301.94
2022-11-10T14:38:03.331Z,99296.13
2022-11-10T14:40:29.938Z,99304.56
2022-11-10T14:42:56.474Z,99299.78
2022-11-10T14:45:24.789Z,99309.16
2022-11-10T14:47:55.951Z,99306.50
2022-11-10T14:50:33.356Z,99300.94
2022-11-10T14:53:19.424Z,99324.66
2022-11-10T14:55:48.503Z,99328.13
2022-11-10T14:58:28.165Z,99322.59
2022-11-10T15:00:54.700Z,99320.84
2022-11-10T15:03:32.910Z,99316.19
2022-11-10T15:05:59.949Z,99321.28
2022-11-10T15:08:26.827Z,99319.13
2022-11-10T15:10:53.447Z,99303.84
2022-11-10T15:13:33.538Z,99313.69
2022-11-10T15:16:31.242Z,99317.25
2022-11-10T15:19:20.154Z,99315.88
2022-11-10T15:21:46.635Z,99313.84
2022-11-10T15:24:13.094Z,99321.38
2022-11-10T15:26:40.300Z,99319.16
2022-11-10T15:29:07.443Z,99320.03
2022-11-10T15:31:34.144Z,99318.53
2022-11-10T15:34:01.868Z,99323.28
2022-11-10T15:36:32.936Z,99317.94
2022-11-10T15:39:12.260Z,99317.13
2022-11-10T15:41:42.891Z,99329.19
2022-11-10T15:44:30.310Z,99331.84
2022-11-10T15:46:57.595Z,99335.47
2022-11-10T15:49:26.971Z,99337.91
2022-11-10T15:51:57.562Z,99344.03
2022-11-10T15:54:25.209Z,99343.69
2022-11-10T15:56:51.673Z,99355.06
2022-11-10T15:59:18.185Z,99361.00
2022-11-10T16:01:44.741Z,99363.41
2022-11-10T16:04:11.426Z,99367.94
2022-11-10T16:06:38.521Z,99375.13
2022-11-10T16:09:05.352Z,99361.81
2022-11-10T16:11:31.858Z,99374.31
2022-11-10T16:13:58.505Z,99370.50
2022-11-10T16:16:24.998Z,99367.03
2022-11-10T16:18:51.670Z,99368.31
2022-11-10T16:21:22.412Z,99364.03
2022-11-10T16:23:48.960Z,99367.75
2022-11-10T16:26:17.264Z,99361.59
2022-11-10T16:28:47.468Z,99347.44
2022-11-10T16:31:15.599Z,99355.56
2022-11-10T16:33:42.154Z,99359.94
2022-11-10T16:36:16.515Z,99362.94
2022-11-10T16:38:43.007Z,99366.97
2022-11-10T16:41:12.254Z,99373.00
2022-11-10T16:43:38.712Z,99378.75
2022-11-10T16:46:06.554Z,99375.25
2022-11-10T16:48:34.199Z,99389.09
2022-11-10T16:51:00.732Z,99399.41
2022-11-10T16:53:29.331Z,99406.13
2022-11-10T16:55:56.160Z,99403.47
2022-11-10T16:58:25.355Z,99412.13
2022-11-10T17:00:52.107Z,99413.63
2022-11-10T17:03:28.668Z,99414.41
2022-11-10T17:05:55.145Z,99403.88
2022-11-10T17:08:23.323Z,99404.88
2022-11-10T17:10:50.619Z,99405.34
2022-11-10T17:13:17.522Z,99410.22
2022-11-10T17:15:44.459Z,99421.06
2022-11-10T17:18:12.855Z,99440.31
2022-11-10T17:20:39.651Z,99431.38
2022-11-10T17:23:06.372Z,99434.63
2022-11-10T17:25:34.365Z,99431.94
2022-11-10T17:28:01.086Z,99430.44
2022-11-10T17:30:28.377Z,99428.66
2022-11-10T17:33:05.251Z,99423.06
2022-11-10T17:35:36.302Z,99414.84
2022-11-10T17:38:08.297Z,99409.50
2022-11-10T17:40:34.781Z,99420.72
2022-11-10T17:43:01.248Z,99430.13
2022-11-10T17:45:27.799Z,99420.41
2022-11-10T17:47:54.341Z,99434.88
2022-11-10T17:50:22.226Z,99427.94
2022-11-10T17:52:48.826Z,99426.31
2022-11-10T17:55:22.750Z,99423.88
2022-11-10T17:57:49.282Z,99423.88
2022-11-10T18:00:16.598Z,99425.72
2022-11-10T18:02:43.571Z,99429.72
2022-11-10T18:05:11.783Z,99440.63
2022-11-10T18:07:38.905Z,99439.25
2022-11-10T18:10:06.167Z,99430.31
2022-11-10T18:12:32.643Z,99430.31
2022-11-10T18:14:59.384Z,99424.63
2022-11-10T18:17:25.867Z,99432.63
2022-11-10T18:19:52.363Z,99432.00
2022-11-10T18:22:18.852Z,99429.63
2022-11-10T18:24:45.371Z,99429.59
2022-11-10T18:27:11.823Z,99426.81
2022-11-10T18:29:38.334Z,99425.88
2022-11-10T18:32:05.097Z,99434.50
2022-11-10T18:34:31.577Z,99427.41
2022-11-10T18:36:58.044Z,99430.25
2022-11-10T18:39:24.508Z,99428.81
2022-11-10T18:41:52.221Z,99431.88
2022-11-10T18:44:21.498Z,99438.16
2022-11-10T18:46:48.332Z,99438.25
2022-11-10T18:49:15.306Z,99431.91
2022-11-10T18:51:41.782Z,99433.25
2022-11-10T18:54:08.435Z,99434.25
2022-11-10T18:56:35.008Z,99433.56
2022-11-10T18:59:01.543Z,99418.00
2022-11-10T19:01:28.853Z,99430.88
2022-11-10T19:03:55.390Z,99423.16
2022-11-10T19:06:21.865Z,99421.81
2022-11-10T19:08:48.678Z,99433.34
2022-11-10T19:11:16.244Z,99431.50
2022-11-10T19:13:42.777Z,99432.38
2022-11-10T19:16:11.362Z,99431.84
2022-11-10T19:18:40.614Z,99429.41
2022-11-10T19:21:07.732Z,99420.56
2022-11-10T19:23:34.206Z,99420.03
2022-11-10T19:26:05.039Z,99425.69
2022-11-10T19:28:31.523Z,99446.13
2022-11-10T19:31:05.880Z,99438.31
2022-11-10T19:33:33.093Z,99437.81
2022-11-10T19:36:19.127Z,99439.50
2022-11-10T19:38:45.681Z,99447.66
2022-11-10T19:41:17.774Z,99454.53
2022-11-10T19:43:47.428Z,99461.75
2022-11-10T19:46:16.076Z,99457.72
2022-11-10T19:48:43.260Z,99460.44
2022-11-10T19:51:11.125Z,99469.75
2022-11-10T19:53:37.589Z,99463.53
2022-11-10T19:56:14.109Z,99461.78
2022-11-10T19:58:40.718Z,99459.97
2022-11-10T20:01:08.756Z,99460.81
2022-11-10T20:03:35.366Z,99464.81
2022-11-10T20:06:03.580Z,99459.78
2022-11-10T20:08:30.260Z,99463.75
2022-11-10T20:11:04.179Z,99461.88
2022-11-10T20:13:30.496Z,99469.13
2022-11-10T20:15:56.988Z,99475.22
2022-11-10T20:18:23.470Z,99475.47
2022-11-10T20:20:49.956Z,99483.44
2022-11-10T20:23:16.758Z,99479.44
2022-11-10T20:25:43.391Z,99479.97
2022-11-10T20:28:09.977Z,99474.63
2022-11-10T20:30:37.933Z,99473.81
2022-11-10T20:33:04.993Z,99472.38
2022-11-10T20:35:31.861Z,99468.91
2022-11-10T20:37:58.332Z,99466.47
2022-11-10T20:40:43.423Z,99470.75
2022-11-10T20:43:11.694Z,99474.25
2022-11-10T20:45:38.999Z,99491.09
2022-11-10T20:48:05.454Z,99490.34
2022-11-10T20:50:31.957Z,99496.50
2022-11-10T20:52:58.618Z,99493.78
2022-11-10T20:55:51.691Z,99496.19
2022-11-10T20:58:11.856Z,99494.03
2022-11-10T21:00:42.532Z,99494.03
2022-11-10T21:03:09.048Z,99501.25
2022-11-10T21:05:35.567Z,99493.47
2022-11-10T21:08:02.073Z,99506.84
2022-11-10T21:10:28.545Z,99502.81
2022-11-10T21:12:55.079Z,99506.16
2022-11-10T21:15:21.584Z,99504.97
2022-11-10T21:17:48.092Z,99504.97
2022-11-10T21:20:14.862Z,99502.03
2022-11-10T21:22:41.327Z,99499.63
2022-11-10T21:25:07.927Z,99498.81
2022-11-10T21:27:34.449Z,99504.97
2022-11-10T21:30:00.975Z,99506.03
2022-11-10T21:32:27.528Z,99503.63
2022-11-10T21:34:54.005Z,99516.16
2022-11-10T21:37:20.501Z,99528.72
2022-11-10T21:39:47.050Z,99532.97
2022-11-10T21:42:15.766Z,99532.41
2022-11-10T21:44:42.228Z,99538.81
2022-11-10T21:47:09.785Z,99538.25
2022-11-10T21:49:36.225Z,99545.72
2022-11-10T21:52:02.749Z,99538.72
2022-11-10T21:54:29.219Z,99544.53
2022-11-10T21:56:55.712Z,99546.59
2022-11-10T21:59:22.854Z,99539.13
2022-11-10T22:01:49.426Z,99536.72
2022-11-10T22:04:15.940Z,99542.34
2022-11-10T22:07:01.101Z,99538.88
2022-11-10T22:09:46.286Z,99546.66
2022-11-10T22:12:31.519Z,99555.50
2022-11-10T22:15:27.113Z,99564.81
2022-11-10T22:18:11.824Z,99561.06
2022-11-10T22:20:38.292Z,99564.81
2022-11-10T22:23:04.784Z,99560.72
2022-11-10T22:25:31.251Z,99565.31
2022-11-10T22:27:57.718Z,99561.25
2022-11-10T22:30:24.209Z,99554.31
2022-11-10T22:32:50.682Z,99559.88
2022-11-10T22:35:38.490Z,99552.88
2022-11-10T22:38:05.549Z,99553.94
2022-11-10T22:40:50.918Z,99552.56
2022-11-10T22:43:36.173Z,99549.59
2022-11-10T22:46:02.691Z,99559.72
2022-11-10T22:48:32.820Z,99550.00
2022-11-10T22:50:59.630Z,99563.84
2022-11-10T22:53:26.462Z,99560.63
2022-11-10T22:55:53.002Z,99573.03
2022-11-10T22:58:19.507Z,99576.75
2022-11-10T23:00:46.812Z,99566.94
2022-11-10T23:03:14.088Z,99585.91
2022-11-10T23:05:40.544Z,99592.69
2022-11-10T23:08:07.306Z,99587.34
2022-11-10T23:10:33.771Z,99577.94
2022-11-10T23:13:00.310Z,99575.19
2022-11-10T23:15:26.784Z,99579.59
2022-11-10T23:17:54.303Z,99585.75
2022-11-10T23:20:20.767Z,99583.56
2022-11-10T23:22:47.228Z,99592.41
2022-11-10T23:25:14.255Z,99594.47
2022-11-10T23:27:40.723Z,99595.78
2022-11-10T23:30:07.740Z,99608.34
2022-11-10T23:32:34.207Z,99612.28
2022-11-10T23:35:00.684Z,99605.56
2022-11-10T23:37:27.190Z,99605.22
2022-11-10T23:39:53.652Z,99601.16
2022-11-10T23:42:21.479Z,99597.94
2022-11-10T23:44:47.933Z,99598.19
2022-11-10T23:47:14.399Z,99593.31
2022-11-10T23:49:40.859Z,99605.03
2022-11-10T23:52:07.338Z,99598.31
2022-11-10T23:54:33.806Z,99595.88
2022-11-10T23:57:00.301Z,99612.38
2022-11-10T23:59:26.760Z,99609.94
